Time,TemperatureF,DewpointF,PressureIn,WindDirection,WindDirectionDegrees,WindSpeedMPH,WindSpeedGustMPH,Humidity,HourlyPrecipIn,Conditions,Clouds,dailyrainin,SolarRadiationWatts/m^2,SoftwareType,DateUTC
2013-05-17 00:03:00,59.0,56.0,30.02,ESE,109,1.0,2.0,91,0.00,,,0.00,0.000000,,2013-05-17 04:03:00,
2013-05-17 00:10:00,56.0,54.0,30.01,SE,125,1.0,1.0,94,0.00,,,0.00,0.000000,,2013-05-17 04:10:00,
2013-05-17 00:34:00,56.0,54.0,30.01,SE,125,1.0,1.0,94,0.00,,,0.00,0.000000,,2013-05-17 04:34:00,
2013-05-17 00:43:00,56.0,54.0,30.01,SE,125,1.0,1.0,94,0.00,,,0.00,0.000000,,2013-05-17 04:43:00,
2013-05-17 00:53:00,56.0,54.0,30.01,SE,125,1.0,1.0,94,0.00,,,0.00,0.000000,,2013-05-17 04:53:00,
2013-05-17 01:03:00,56.0,54.0,30.01,SE,125,1.0,1.0,94,0.00,,,0.00,0.000000,,2013-05-17 05:03:00,
2013-05-17 01:10:00,56.0,55.0,30.01,SE,140,1.0,1.0,96,0.00,,,0.00,0.000000,,2013-05-17 05:10:00,
2013-05-17 01:32:00,56.0,55.0,30.01,SE,140,1.0,1.0,96,0.00,,,0.00,0.000000,,2013-05-17 05:32:00,
2013-05-17 01:43:00,56.0,55.0,30.01,SE,140,1.0,1.0,96,0.00,,,0.00,0.000000,,2013-05-17 05:43:00,
2013-05-17 01:52:00,56.0,55.0,30.01,SE,140,1.0,1.0,96,0.00,,,0.00,0.000000,,2013-05-17 05:52:00,
2013-05-17 02:02:00,56.0,55.0,30.01,SE,140,1.0,1.0,96,0.00,,,0.00,0.000000,,2013-05-17 06:02:00,
2013-05-17 02:10:00,56.0,55.0,29.99,SSE,164,1.0,1.0,98,0.00,,,0.00,0.000000,,2013-05-17 06:10:00,
2013-05-17 02:42:00,56.0,55.0,29.99,SSE,164,1.0,1.0,98,0.00,,,0.00,0.000000,,2013-05-17 06:42:00,
2013-05-17 02:52:00,56.0,55.0,29.99,SSE,164,1.0,1.0,98,0.00,,,0.00,0.000000,,2013-05-17 06:52:00,
2013-05-17 03:03:00,56.0,55.0,29.99,SSE,164,1.0,1.0,98,0.00,,,0.00,0.000000,,2013-05-17 07:03:00,
2013-05-17 03:10:00,54.0,53.0,30.00,South,184,1.0,1.0,98,0.00,,,0.00,0.000000,,2013-05-17 07:10:00,
2013-05-17 03:43:00,54.0,53.0,30.00,South,184,1.0,1.0,98,0.00,,,0.00,0.000000,,2013-05-17 07:43:00,
2013-05-17 03:53:00,54.0,53.0,30.00,South,184,1.0,1.0,98,0.00,,,0.00,0.000000,,2013-05-17 07:53:00,
2013-05-17 04:02:00,54.0,53.0,30.00,South,184,1.0,1.0,98,0.00,,,0.00,0.000000,,2013-05-17 08:02:00,
2013-05-17 04:10:00,54.0,53.0,30.01,NE,54,1.0,1.0,98,0.00,,,0.00,0.000000,,2013-05-17 08:10:00,
2013-05-17 04:43:00,54.0,53.0,30.01,NE,54,1.0,1.0,98,0.00,,,0.00,0.000000,,2013-05-17 08:43:00,
2013-05-17 04:52:00,54.0,53.0,30.01,NE,54,1.0,1.0,98,0.00,,,0.00,0.000000,,2013-05-17 08:52:00,
2013-05-17 05:02:00,54.0,53.0,30.01,NE,54,1.0,1.0,98,0.00,,,0.00,0.000000,,2013-05-17 09:02:00,
2013-05-17 05:10:00,54.0,53.0,30.01,East,98,1.0,1.0,98,0.00,,,0.00,0.000000,,2013-05-17 09:10:00,
2013-05-17 05:33:00,54.0,53.0,30.01,East,98,1.0,1.0,98,0.00,,,0.00,0.000000,,2013-05-17 09:33:00,
2013-05-17 05:42:00,54.0,53.0,30.01,East,98,1.0,1.0,98,0.00,,,0.00,0.000000,,2013-05-17 09:42:00,
2013-05-17 05:53:00,54.0,53.0,30.01,East,98,1.0,1.0,98,0.00,,,0.00,0.000000,,2013-05-17 09:53:00,
2013-05-17 06:03:00,54.0,53.0,30.01,East,98,1.0,1.0,98,0.00,,,0.00,0.000000,,2013-05-17 10:03:00,
2013-05-17 06:10:00,55.0,55.0,30.03,West,266,1.0,1.0,99,0.00,,,0.00,0.000000,,2013-05-17 10:10:00,
2013-05-17 06:42:00,55.0,55.0,30.03,West,266,1.0,1.0,99,0.00,,,0.00,0.000000,,2013-05-17 10:42:00,
2013-05-17 06:54:00,55.0,55.0,30.03,West,266,1.0,1.0,99,0.00,,,0.00,0.000000,,2013-05-17 10:54:00,
2013-05-17 07:02:00,55.0,55.0,30.03,West,266,1.0,1.0,99,0.00,,,0.00,0.000000,,2013-05-17 11:02:00,
2013-05-17 07:10:00,54.0,53.0,30.04,SW,219,1.0,1.0,98,0.00,,,0.00,0.000000,,2013-05-17 11:10:00,
2013-05-17 07:34:00,54.0,53.0,30.04,SW,219,1.0,1.0,98,0.00,,,0.00,0.000000,,2013-05-17 11:34:00,
2013-05-17 07:42:00,54.0,53.0,30.04,SW,219,1.0,1.0,98,0.00,,,0.00,0.000000,,2013-05-17 11:42:00,
2013-05-17 07:53:00,54.0,53.0,30.04,SW,219,1.0,1.0,98,0.00,,,0.00,0.000000,,2013-05-17 11:53:00,
2013-05-17 08:03:00,54.0,53.0,30.04,SW,219,1.0,1.0,98,0.00,,,0.00,0.000000,,2013-05-17 12:03:00,
2013-05-17 08:10:00,57.0,56.0,30.06,NW,318,0.0,1.0,97,0.00,,,0.00,12.000000,,2013-05-17 12:10:00,
2013-05-17 08:33:00,57.0,56.0,30.06,NW,318,0.0,1.0,97,0.00,,,0.00,12.000000,,2013-05-17 12:33:00,
2013-05-17 08:43:00,57.0,56.0,30.06,NW,318,0.0,1.0,97,0.00,,,0.00,12.000000,,2013-05-17 12:43:00,
2013-05-17 08:53:00,57.0,56.0,30.06,NW,318,0.0,1.0,97,0.00,,,0.00,12.000000,,2013-05-17 12:53:00,
2013-05-17 09:04:00,57.0,56.0,30.06,NW,318,0.0,1.0,97,0.00,,,0.00,12.000000,,2013-05-17 13:04:00,
2013-05-17 09:33:00,69.0,61.0,30.08,West,261,1.0,1.0,75,0.00,,,0.00,69.000000,,2013-05-17 13:33:00,
2013-05-17 10:10:00,72.0,57.0,30.06,NE,36,4.0,4.0,59,-99.99,,,0.00,330.000000,,2013-05-17 14:10:00,
2013-05-17 10:43:00,72.0,57.0,30.06,NE,36,4.0,4.0,59,-99.99,,,0.00,330.000000,,2013-05-17 14:43:00,
2013-05-17 10:53:00,72.0,57.0,30.06,NE,36,4.0,4.0,59,-99.99,,,0.00,330.000000,,2013-05-17 14:53:00,
2013-05-17 11:10:00,74.0,55.0,30.08,NNE,27,4.0,4.0,51,0.00,,,0.00,460.000000,,2013-05-17 15:10:00,
2013-05-17 11:47:00,74.0,55.0,30.08,NNE,27,4.0,4.0,51,0.00,,,0.00,460.000000,,2013-05-17 15:47:00,
2013-05-17 11:57:00,74.0,55.0,30.08,NNE,27,4.0,4.0,51,0.00,,,0.00,460.000000,,2013-05-17 15:57:00,
2013-05-17 12:07:00,74.0,55.0,30.08,NNE,27,4.0,4.0,51,0.00,,,0.00,460.000000,,2013-05-17 16:07:00,
2013-05-17 12:10:00,75.0,56.0,30.08,ESE,113,3.0,3.0,52,0.00,,,0.00,756.000000,,2013-05-17 16:10:00,
2013-05-17 12:37:00,75.0,56.0,30.08,ESE,113,3.0,3.0,52,0.00,,,0.00,756.000000,,2013-05-17 16:37:00,
2013-05-17 12:50:00,75.0,56.0,30.08,ESE,113,3.0,3.0,52,0.00,,,0.00,756.000000,,2013-05-17 16:50:00,
2013-05-17 12:56:00,75.0,56.0,30.08,ESE,113,3.0,3.0,52,0.00,,,0.00,756.000000,,2013-05-17 16:56:00,
2013-05-17 13:08:00,75.0,56.0,30.08,ESE,113,3.0,3.0,52,0.00,,,0.00,756.000000,,2013-05-17 17:08:00,
2013-05-17 13:10:00,78.0,56.0,30.06,NW,304,4.0,4.0,47,0.00,,,0.00,524.000000,,2013-05-17 17:10:00,
2013-05-17 13:40:00,78.0,-99.9,30.06,NW,304,4.0,4.0,47,0.00,,,0.00,524.000000,,2013-05-17 17:40:00,
2013-05-17 13:49:00,78.0,56.0,30.06,NW,304,4.0,4.0,47,0.00,,,0.00,524.000000,,2013-05-17 17:49:00,
2013-05-17 14:00:00,78.0,-99.9,30.06,NW,304,4.0,4.0,47,0.00,,,0.00,524.000000,,2013-05-17 18:00:00,
2013-05-17 14:09:00,78.0,56.0,30.06,NW,304,4.0,4.0,47,0.00,,,0.00,524.000000,,2013-05-17 18:09:00,
2013-05-17 14:10:00,74.0,58.0,30.06,SSW,202,5.0,5.0,57,0.00,,,0.00,865.000000,,2013-05-17 18:10:00,
2013-05-17 14:50:00,-999.0,-99.9,30.06,SSW,202,5.0,5.0,57,0.00,,,0.00,865.000000,,2013-05-17 18:50:00,
2013-05-17 15:00:00,74.0,-99.9,30.06,SSW,202,5.0,5.0,57,0.00,,,0.00,865.000000,,2013-05-17 19:00:00,
2013-05-17 15:10:00,77.0,56.0,30.05,West,261,6.0,6.0,48,0.00,,,0.00,659.000000,,2013-05-17 19:10:00,
2013-05-17 15:41:00,77.0,56.0,30.05,West,261,6.0,6.0,48,0.00,,,0.00,659.000000,,2013-05-17 19:41:00,
2013-05-17 15:51:00,77.0,56.0,30.05,West,261,6.0,6.0,48,0.00,,,0.00,659.000000,,2013-05-17 19:51:00,
2013-05-17 16:01:00,-999.0,-99.9,30.05,West,261,6.0,6.0,48,0.00,,,0.00,659.000000,,2013-05-17 20:01:00,
2013-05-17 16:10:00,79.0,54.0,30.04,ESE,112,6.0,6.0,42,0.00,,,0.00,660.000000,,2013-05-17 20:10:00,
2013-05-17 16:50:00,79.0,54.0,30.04,ESE,112,6.0,6.0,42,0.00,,,0.00,660.000000,,2013-05-17 20:50:00,
2013-05-17 16:58:00,79.0,54.0,30.04,ESE,112,6.0,6.0,42,0.00,,,0.00,660.000000,,2013-05-17 20:58:00,
2013-05-17 17:07:00,79.0,54.0,30.04,ESE,112,6.0,6.0,42,0.00,,,0.00,660.000000,,2013-05-17 21:07:00,
2013-05-17 17:10:00,76.0,54.0,30.02,North,0,6.0,6.0,47,0.00,,,0.00,907.000000,,2013-05-17 21:10:00,
2013-05-17 17:39:00,76.0,54.0,30.02,North,0,6.0,6.0,47,0.00,,,0.00,907.000000,,2013-05-17 21:39:00,
2013-05-17 17:49:00,76.0,54.0,30.02,North,0,6.0,6.0,47,0.00,,,0.00,907.000000,,2013-05-17 21:49:00,
2013-05-17 17:58:00,76.0,54.0,30.02,North,0,6.0,6.0,47,0.00,,,0.00,907.000000,,2013-05-17 21:58:00,
2013-05-17 18:07:00,76.0,54.0,30.02,North,0,6.0,6.0,47,0.00,,,0.00,907.000000,,2013-05-17 22:07:00,
2013-05-17 18:10:00,74.0,58.0,30.03,SSW,202,8.0,8.0,57,0.00,,,0.00,558.000000,,2013-05-17 22:10:00,
2013-05-17 18:38:00,74.0,58.0,30.03,SSW,202,8.0,8.0,57,0.00,,,0.00,558.000000,,2013-05-17 22:38:00,
2013-05-17 18:47:00,74.0,58.0,30.03,SSW,202,8.0,8.0,57,0.00,,,0.00,558.000000,,2013-05-17 22:47:00,
2013-05-17 18:55:00,74.0,58.0,30.03,SSW,202,8.0,8.0,57,0.00,,,0.00,558.000000,,2013-05-17 22:55:00,
2013-05-17 19:04:00,74.0,58.0,30.03,SSW,202,8.0,8.0,57,0.00,,,0.00,558.000000,,2013-05-17 23:04:00,
2013-05-17 19:10:00,69.0,56.0,30.03,SSW,208,5.0,6.0,63,0.00,,,0.00,499.000000,,2013-05-17 23:10:00,
2013-05-17 19:38:00,69.0,56.0,30.03,SSW,208,5.0,6.0,63,0.00,,,0.00,499.000000,,2013-05-17 23:38:00,
2013-05-17 19:47:00,69.0,56.0,30.03,SSW,208,5.0,6.0,63,0.00,,,0.00,499.000000,,2013-05-17 23:47:00,
2013-05-17 19:54:00,69.0,56.0,30.03,SSW,208,5.0,6.0,63,0.00,,,0.00,499.000000,,2013-05-17 23:54:00,
2013-05-17 20:02:00,69.0,56.0,30.03,SSW,208,5.0,6.0,63,0.00,,,0.00,499.000000,,2013-05-18 00:02:00,
2013-05-17 20:10:00,66.0,54.0,30.04,South,178,2.0,5.0,66,0.00,,,0.00,183.000000,,2013-05-18 00:10:00,
2013-05-17 20:34:00,66.0,54.0,30.04,South,178,2.0,5.0,66,0.00,,,0.00,183.000000,,2013-05-18 00:34:00,
2013-05-17 20:45:00,66.0,54.0,30.04,South,178,2.0,5.0,66,0.00,,,0.00,183.000000,,2013-05-18 00:45:00,
2013-05-17 20:54:00,66.0,54.0,30.04,South,178,2.0,5.0,66,0.00,,,0.00,183.000000,,2013-05-18 00:54:00,
2013-05-17 21:03:00,66.0,54.0,30.04,South,178,2.0,5.0,66,0.00,,,0.00,183.000000,,2013-05-18 01:03:00,
2013-05-17 21:10:00,62.0,56.0,30.05,SSE,164,1.0,4.0,82,0.00,,,0.00,79.000000,,2013-05-18 01:10:00,
2013-05-17 21:32:00,62.0,56.0,30.05,SSE,164,1.0,4.0,82,0.00,,,0.00,79.000000,,2013-05-18 01:32:00,
2013-05-17 21:43:00,62.0,56.0,30.05,SSE,164,1.0,4.0,82,0.00,,,0.00,79.000000,,2013-05-18 01:43:00,
2013-05-17 21:52:00,62.0,56.0,30.05,SSE,164,1.0,4.0,82,0.00,,,0.00,79.000000,,2013-05-18 01:52:00,
2013-05-17 22:03:00,62.0,56.0,30.05,SSE,164,1.0,4.0,82,0.00,,,0.00,79.000000,,2013-05-18 02:03:00,
2013-05-17 22:10:00,60.0,56.0,30.06,SSE,163,1.0,3.0,86,0.00,,,0.00,5.000000,,2013-05-18 02:10:00,
2013-05-17 22:43:00,60.0,56.0,30.06,SSE,163,1.0,3.0,86,0.00,,,0.00,5.000000,,2013-05-18 02:43:00,
2013-05-17 22:54:00,60.0,56.0,30.06,SSE,163,1.0,3.0,86,0.00,,,0.00,5.000000,,2013-05-18 02:54:00,
2013-05-17 23:03:00,60.0,56.0,30.06,SSE,163,1.0,3.0,86,0.00,,,0.00,5.000000,,2013-05-18 03:03:00,
2013-05-17 23:10:00,59.0,54.0,30.07,South,187,1.0,2.0,82,0.00,,,0.00,0.000000,,2013-05-18 03:10:00,
2013-05-17 23:33:00,59.0,54.0,30.07,South,187,1.0,2.0,82,0.00,,,0.00,0.000000,,2013-05-18 03:33:00,
2013-05-17 23:43:00,59.0,54.0,30.07,South,187,1.0,2.0,82,0.00,,,0.00,0.000000,,2013-05-18 03:43:00,
2013-05-17 23:53:00,59.0,54.0,30.07,South,187,1.0,2.0,82,0.00,,,0.00,0.000000,,2013-05-18 03:53:00,